sensor_id;sensor_type;location;lat;lon;timestamp;P1;durP1;ratioP1;P2;durP2;ratioP2
10244;SDS011;5167;52.164;10.530;2024-01-16T00:01:30;4.33;;;2.20;;
10244;SDS011;5167;52.164;10.530;2024-01-16T00:03:56;4.47;;;2.60;;
10244;SDS011;5167;52.164;10.530;2024-01-16T00:06:21;6.17;;;2.70;;
10244;SDS011;5167;52.164;10.530;2024-01-16T00:08:47;4.80;;;2.37;;
10244;SDS011;5167;52.164;10.530;2024-01-16T00:11:12;2.80;;;2.47;;
10244;SDS011;5167;52.164;10.530;2024-01-16T00:13:38;3.70;;;2.43;;
10244;SDS011;5167;52.164;10.530;2024-01-16T00:16:03;6.20;;;3.00;;
10244;SDS011;5167;52.164;10.530;2024-01-16T00:18:29;3.93;;;2.40;;
10244;SDS011;5167;52.164;10.530;2024-01-16T00:20:54;6.40;;;2.80;;
10244;SDS011;5167;52.164;10.530;2024-01-16T00:23:20;5.13;;;2.60;;
10244;SDS011;5167;52.164;10.530;2024-01-16T00:25:46;7.00;;;3.70;;
10244;SDS011;5167;52.164;10.530;2024-01-16T00:28:11;6.37;;;2.97;;
10244;SDS011;5167;52.164;10.530;2024-01-16T00:30:37;3.37;;;2.13;;
10244;SDS011;5167;52.164;10.530;2024-01-16T00:33:02;5.23;;;2.10;;
10244;SDS011;5167;52.164;10.530;2024-01-16T00:35:28;7.20;;;2.20;;
10244;SDS011;5167;52.164;10.530;2024-01-16T00:37:53;2.57;;;1.73;;
10244;SDS011;5167;52.164;10.530;2024-01-16T00:40:19;4.23;;;1.90;;
10244;SDS011;5167;52.164;10.530;2024-01-16T00:42:44;3.00;;;1.40;;
10244;SDS011;5167;52.164;10.530;2024-01-16T00:45:10;7.37;;;2.20;;
10244;SDS011;5167;52.164;10.530;2024-01-16T00:47:35;4.53;;;1.70;;
10244;SDS011;5167;52.164;10.530;2024-01-16T00:50:01;2.83;;;1.70;;
10244;SDS011;5167;52.164;10.530;2024-01-16T00:52:27;5.80;;;1.60;;
10244;SDS011;5167;52.164;10.530;2024-01-16T00:54:52;6.83;;;1.70;;
10244;SDS011;5167;52.164;10.530;2024-01-16T00:57:18;2.87;;;1.60;;
10244;SDS011;5167;52.164;10.530;2024-01-16T00:59:44;3.87;;;1.83;;
10244;SDS011;5167;52.164;10.530;2024-01-16T01:02:14;1.87;;;1.73;;
10244;SDS011;5167;52.164;10.530;2024-01-16T01:04:39;4.47;;;2.23;;
10244;SDS011;5167;52.164;10.530;2024-01-16T01:07:06;3.27;;;2.13;;
10244;SDS011;5167;52.164;10.530;2024-01-16T01:09:33;2.27;;;2.00;;
10244;SDS011;5167;52.164;10.530;2024-01-16T01:11:58;1.70;;;1.60;;
10244;SDS011;5167;52.164;10.530;2024-01-16T01:14:24;2.70;;;1.40;;
10244;SDS011;5167;52.164;10.530;2024-01-16T01:16:51;2.23;;;1.83;;
10244;SDS011;5167;52.164;10.530;2024-01-16T01:19:17;2.20;;;1.60;;
10244;SDS011;5167;52.164;10.530;2024-01-16T01:21:43;1.77;;;1.40;;
10244;SDS011;5167;52.164;10.530;2024-01-16T01:24:08;5.40;;;1.50;;
10244;SDS011;5167;52.164;10.530;2024-01-16T01:26:34;7.17;;;1.70;;
10244;SDS011;5167;52.164;10.530;2024-01-16T01:28:59;2.73;;;1.67;;
10244;SDS011;5167;52.164;10.530;2024-01-16T01:31:25;2.17;;;1.50;;
10244;SDS011;5167;52.164;10.530;2024-01-16T01:33:50;2.40;;;1.13;;
10244;SDS011;5167;52.164;10.530;2024-01-16T01:36:16;2.40;;;1.20;;
10244;SDS011;5167;52.164;10.530;2024-01-16T01:38:41;2.63;;;1.20;;
10244;SDS011;5167;52.164;10.530;2024-01-16T01:41:07;1.90;;;1.10;;
10244;SDS011;5167;52.164;10.530;2024-01-16T01:43:33;2.73;;;1.37;;
10244;SDS011;5167;52.164;10.530;2024-01-16T01:46:16;1.90;;;1.13;;
10244;SDS011;5167;52.164;10.530;2024-01-16T01:48:44;1.43;;;1.23;;
10244;SDS011;5167;52.164;10.530;2024-01-16T01:51:12;2.07;;;1.27;;
10244;SDS011;5167;52.164;10.530;2024-01-16T01:53:39;2.57;;;1.47;;
10244;SDS011;5167;52.164;10.530;2024-01-16T01:56:08;1.37;;;1.20;;
10244;SDS011;5167;52.164;10.530;2024-01-16T01:58:36;2.97;;;1.60;;
10244;SDS011;5167;52.164;10.530;2024-01-16T02:01:03;1.60;;;1.50;;
10244;SDS011;5167;52.164;10.530;2024-01-16T02:03:30;2.30;;;1.23;;
10244;SDS011;5167;52.164;10.530;2024-01-16T02:06:00;1.90;;;1.63;;
10244;SDS011;5167;52.164;10.530;2024-01-16T02:08:25;1.80;;;1.60;;
10244;SDS011;5167;52.164;10.530;2024-01-16T02:10:51;3.23;;;1.60;;
10244;SDS011;5167;52.164;10.530;2024-01-16T02:13:18;2.50;;;1.63;;
10244;SDS011;5167;52.164;10.530;2024-01-16T02:15:48;2.13;;;1.30;;
10244;SDS011;5167;52.164;10.530;2024-01-16T02:18:13;3.67;;;1.50;;
10244;SDS011;5167;52.164;10.530;2024-01-16T02:20:39;2.50;;;1.50;;
10244;SDS011;5167;52.164;10.530;2024-01-16T02:23:04;2.80;;;1.63;;
10244;SDS011;5167;52.164;10.530;2024-01-16T02:25:31;4.60;;;1.50;;
10244;SDS011;5167;52.164;10.530;2024-01-16T02:27:59;1.80;;;1.20;;
10244;SDS011;5167;52.164;10.530;2024-01-16T02:30:25;2.83;;;1.50;;
10244;SDS011;5167;52.164;10.530;2024-01-16T02:32:50;8.70;;;1.53;;
10244;SDS011;5167;52.164;10.530;2024-01-16T02:35:16;2.20;;;1.47;;
10244;SDS011;5167;52.164;10.530;2024-01-16T02:37:43;4.83;;;1.40;;
10244;SDS011;5167;52.164;10.530;2024-01-16T02:40:09;1.43;;;1.33;;
10244;SDS011;5167;52.164;10.530;2024-01-16T02:42:35;1.63;;;1.30;;
10244;SDS011;5167;52.164;10.530;2024-01-16T02:45:02;3.63;;;1.73;;
10244;SDS011;5167;52.164;10.530;2024-01-16T02:47:29;3.00;;;1.60;;
10244;SDS011;5167;52.164;10.530;2024-01-16T02:49:54;2.43;;;1.50;;
10244;SDS011;5167;52.164;10.530;2024-01-16T02:52:20;4.17;;;1.57;;
10244;SDS011;5167;52.164;10.530;2024-01-16T02:54:45;1.37;;;1.30;;
10244;SDS011;5167;52.164;10.530;2024-01-16T02:57:11;1.63;;;1.53;;
10244;SDS011;5167;52.164;10.530;2024-01-16T02:59:36;5.33;;;1.77;;
10244;SDS011;5167;52.164;10.530;2024-01-16T03:02:02;1.90;;;1.80;;
10244;SDS011;5167;52.164;10.530;2024-01-16T03:04:28;6.40;;;1.60;;
10244;SDS011;5167;52.164;10.530;2024-01-16T03:06:54;4.77;;;2.10;;
10244;SDS011;5167;52.164;10.530;2024-01-16T03:09:20;7.50;;;2.70;;
10244;SDS011;5167;52.164;10.530;2024-01-16T03:11:45;6.13;;;2.27;;
10244;SDS011;5167;52.164;10.530;2024-01-16T03:14:11;6.60;;;2.17;;
10244;SDS011;5167;52.164;10.530;2024-01-16T03:16:38;6.53;;;2.30;;
10244;SDS011;5167;52.164;10.530;2024-01-16T03:19:04;5.57;;;2.10;;
10244;SDS011;5167;52.164;10.530;2024-01-16T03:21:29;3.70;;;2.50;;
10244;SDS011;5167;52.164;10.530;2024-01-16T03:23:55;3.30;;;2.00;;
10244;SDS011;5167;52.164;10.530;2024-01-16T03:26:20;4.23;;;2.10;;
10244;SDS011;5167;52.164;10.530;2024-01-16T03:28:46;7.33;;;1.67;;
10244;SDS011;5167;52.164;10.530;2024-01-16T03:31:14;3.63;;;1.60;;
10244;SDS011;5167;52.164;10.530;2024-01-16T03:33:40;2.07;;;1.60;;
10244;SDS011;5167;52.164;10.530;2024-01-16T03:36:07;4.47;;;1.60;;
10244;SDS011;5167;52.164;10.530;2024-01-16T03:38:34;5.83;;;2.00;;
10244;SDS011;5167;52.164;10.530;2024-01-16T03:41:03;7.47;;;2.10;;
10244;SDS011;5167;52.164;10.530;2024-01-16T03:43:31;5.80;;;1.70;;
10244;SDS011;5167;52.164;10.530;2024-01-16T03:45:57;6.23;;;2.57;;
10244;SDS011;5167;52.164;10.530;2024-01-16T03:48:23;3.30;;;1.70;;
10244;SDS011;5167;52.164;10.530;2024-01-16T03:50:48;2.93;;;1.37;;
10244;SDS011;5167;52.164;10.530;2024-01-16T03:53:14;4.50;;;1.60;;
10244;SDS011;5167;52.164;10.530;2024-01-16T03:55:39;2.57;;;1.70;;
10244;SDS011;5167;52.164;10.530;2024-01-16T03:58:05;5.03;;;2.10;;
10244;SDS011;5167;52.164;10.530;2024-01-16T04:00:31;3.60;;;2.30;;
10244;SDS011;5167;52.164;10.530;2024-01-16T04:02:56;3.47;;;1.70;;
10244;SDS011;5167;52.164;10.530;2024-01-16T04:05:22;3.23;;;1.70;;
10244;SDS011;5167;52.164;10.530;2024-01-16T04:07:47;4.27;;;1.67;;
10244;SDS011;5167;52.164;10.530;2024-01-16T04:10:13;2.60;;;1.80;;
10244;SDS011;5167;52.164;10.530;2024-01-16T04:12:38;7.37;;;2.13;;
10244;SDS011;5167;52.164;10.530;2024-01-16T04:15:04;4.17;;;1.53;;
10244;SDS011;5167;52.164;10.530;2024-01-16T04:17:30;4.50;;;1.77;;
10244;SDS011;5167;52.164;10.530;2024-01-16T04:19:55;4.93;;;1.70;;
10244;SDS011;5167;52.164;10.530;2024-01-16T04:22:21;2.97;;;1.50;;
10244;SDS011;5167;52.164;10.530;2024-01-16T04:24:46;6.77;;;1.90;;
10244;SDS011;5167;52.164;10.530;2024-01-16T04:27:12;2.13;;;1.83;;
10244;SDS011;5167;52.164;10.530;2024-01-16T04:29:38;2.40;;;1.80;;
10244;SDS011;5167;52.164;10.530;2024-01-16T04:32:03;4.80;;;1.50;;
10244;SDS011;5167;52.164;10.530;2024-01-16T04:34:29;5.03;;;1.97;;
10244;SDS011;5167;52.164;10.530;2024-01-16T04:36:55;5.43;;;2.13;;
10244;SDS011;5167;52.164;10.530;2024-01-16T04:39:20;4.37;;;2.17;;
10244;SDS011;5167;52.164;10.530;2024-01-16T04:41:49;5.23;;;1.87;;
10244;SDS011;5167;52.164;10.530;2024-01-16T04:44:14;4.67;;;1.60;;
10244;SDS011;5167;52.164;10.530;2024-01-16T04:46:40;9.33;;;2.20;;
10244;SDS011;5167;52.164;10.530;2024-01-16T04:49:06;6.90;;;2.20;;
10244;SDS011;5167;52.164;10.530;2024-01-16T04:51:31;2.87;;;2.23;;
10244;SDS011;5167;52.164;10.530;2024-01-16T04:53:56;5.87;;;2.87;;
10244;SDS011;5167;52.164;10.530;2024-01-16T04:56:22;4.33;;;2.13;;
10244;SDS011;5167;52.164;10.530;2024-01-16T04:58:47;7.67;;;2.30;;
10244;SDS011;5167;52.164;10.530;2024-01-16T05:01:13;7.73;;;2.77;;
10244;SDS011;5167;52.164;10.530;2024-01-16T05:03:39;12.23;;;3.17;;
10244;SDS011;5167;52.164;10.530;2024-01-16T05:06:04;10.37;;;3.00;;
10244;SDS011;5167;52.164;10.530;2024-01-16T05:08:30;8.87;;;2.73;;
10244;SDS011;5167;52.164;10.530;2024-01-16T05:10:56;6.07;;;2.93;;
10244;SDS011;5167;52.164;10.530;2024-01-16T05:13:22;7.60;;;3.50;;
10244;SDS011;5167;52.164;10.530;2024-01-16T05:15:47;8.47;;;2.87;;
10244;SDS011;5167;52.164;10.530;2024-01-16T05:18:13;11.60;;;3.03;;
10244;SDS011;5167;52.164;10.530;2024-01-16T05:20:39;8.73;;;2.93;;
10244;SDS011;5167;52.164;10.530;2024-01-16T05:23:05;7.63;;;2.40;;
10244;SDS011;5167;52.164;10.530;2024-01-16T05:25:30;9.30;;;2.37;;
10244;SDS011;5167;52.164;10.530;2024-01-16T05:27:56;9.23;;;2.60;;
10244;SDS011;5167;52.164;10.530;2024-01-16T05:30:21;6.17;;;2.63;;
10244;SDS011;5167;52.164;10.530;2024-01-16T05:32:47;8.33;;;2.97;;
10244;SDS011;5167;52.164;10.530;2024-01-16T05:35:12;9.83;;;2.77;;
10244;SDS011;5167;52.164;10.530;2024-01-16T05:37:38;5.43;;;3.07;;
10244;SDS011;5167;52.164;10.530;2024-01-16T05:40:04;4.13;;;2.80;;
10244;SDS011;5167;52.164;10.530;2024-01-16T05:42:32;5.80;;;3.17;;
10244;SDS011;5167;52.164;10.530;2024-01-16T05:44:57;5.43;;;2.70;;
10244;SDS011;5167;52.164;10.530;2024-01-16T05:47:23;7.23;;;3.13;;
10244;SDS011;5167;52.164;10.530;2024-01-16T05:49:52;9.50;;;3.83;;
10244;SDS011;5167;52.164;10.530;2024-01-16T05:52:18;13.17;;;4.63;;
10244;SDS011;5167;52.164;10.530;2024-01-16T05:54:44;6.77;;;3.37;;
10244;SDS011;5167;52.164;10.530;2024-01-16T05:57:09;10.00;;;3.30;;
10244;SDS011;5167;52.164;10.530;2024-01-16T05:59:35;7.23;;;2.90;;
10244;SDS011;5167;52.164;10.530;2024-01-16T06:02:00;9.60;;;3.40;;
10244;SDS011;5167;52.164;10.530;2024-01-16T06:04:25;8.83;;;3.20;;
10244;SDS011;5167;52.164;10.530;2024-01-16T06:06:51;5.60;;;2.40;;
10244;SDS011;5167;52.164;10.530;2024-01-16T06:09:17;11.43;;;2.93;;
10244;SDS011;5167;52.164;10.530;2024-01-16T06:11:43;7.60;;;2.63;;
10244;SDS011;5167;52.164;10.530;2024-01-16T06:14:09;4.83;;;2.93;;
10244;SDS011;5167;52.164;10.530;2024-01-16T06:16:35;13.03;;;2.90;;
10244;SDS011;5167;52.164;10.530;2024-01-16T06:19:01;9.83;;;3.07;;
10244;SDS011;5167;52.164;10.530;2024-01-16T06:21:26;8.17;;;3.27;;
10244;SDS011;5167;52.164;10.530;2024-01-16T06:23:52;7.03;;;2.70;;
10244;SDS011;5167;52.164;10.530;2024-01-16T06:26:17;4.73;;;2.47;;
10244;SDS011;5167;52.164;10.530;2024-01-16T06:28:43;10.90;;;2.60;;
10244;SDS011;5167;52.164;10.530;2024-01-16T06:31:09;5.87;;;1.97;;
10244;SDS011;5167;52.164;10.530;2024-01-16T06:33:34;6.33;;;2.00;;
10244;SDS011;5167;52.164;10.530;2024-01-16T06:36:01;5.07;;;1.67;;
10244;SDS011;5167;52.164;10.530;2024-01-16T06:38:29;8.60;;;2.40;;
10244;SDS011;5167;52.164;10.530;2024-01-16T06:40:55;9.43;;;2.90;;
10244;SDS011;5167;52.164;10.530;2024-01-16T06:43:21;9.13;;;2.80;;
10244;SDS011;5167;52.164;10.530;2024-01-16T06:45:46;4.70;;;2.73;;
10244;SDS011;5167;52.164;10.530;2024-01-16T06:48:12;9.30;;;2.97;;
10244;SDS011;5167;52.164;10.530;2024-01-16T06:50:37;6.33;;;2.80;;
10244;SDS011;5167;52.164;10.530;2024-01-16T06:53:03;8.27;;;3.07;;
10244;SDS011;5167;52.164;10.530;2024-01-16T06:55:29;5.20;;;2.80;;
10244;SDS011;5167;52.164;10.530;2024-01-16T06:57:54;14.20;;;3.53;;
10244;SDS011;5167;52.164;10.530;2024-01-16T07:00:20;5.77;;;3.10;;
10244;SDS011;5167;52.164;10.530;2024-01-16T07:02:47;5.33;;;3.27;;
10244;SDS011;5167;52.164;10.530;2024-01-16T07:05:13;9.90;;;3.90;;
10244;SDS011;5167;52.164;10.530;2024-01-16T07:07:39;5.07;;;2.87;;
10244;SDS011;5167;52.164;10.530;2024-01-16T07:10:04;8.53;;;2.63;;
10244;SDS011;5167;52.164;10.530;2024-01-16T07:12:33;6.63;;;2.80;;
10244;SDS011;5167;52.164;10.530;2024-01-16T07:14:58;6.40;;;2.93;;
10244;SDS011;5167;52.164;10.530;2024-01-16T07:17:24;8.90;;;2.90;;
10244;SDS011;5167;52.164;10.530;2024-01-16T07:19:50;6.20;;;2.60;;
10244;SDS011;5167;52.164;10.530;2024-01-16T07:22:15;11.03;;;3.33;;
10244;SDS011;5167;52.164;10.530;2024-01-16T07:24:41;16.17;;;4.00;;
10244;SDS011;5167;52.164;10.530;2024-01-16T07:27:06;9.13;;;3.30;;
10244;SDS011;5167;52.164;10.530;2024-01-16T07:29:32;8.03;;;2.90;;
10244;SDS011;5167;52.164;10.530;2024-01-16T07:31:57;5.40;;;3.00;;
10244;SDS011;5167;52.164;10.530;2024-01-16T07:34:23;7.37;;;2.70;;
10244;SDS011;5167;52.164;10.530;2024-01-16T07:36:50;9.17;;;2.93;;
10244;SDS011;5167;52.164;10.530;2024-01-16T07:39:16;7.03;;;2.47;;
10244;SDS011;5167;52.164;10.530;2024-01-16T07:41:42;7.03;;;2.97;;
10244;SDS011;5167;52.164;10.530;2024-01-16T07:44:07;7.60;;;3.07;;
10244;SDS011;5167;52.164;10.530;2024-01-16T07:46:33;5.87;;;2.97;;
10244;SDS011;5167;52.164;10.530;2024-01-16T07:48:58;9.73;;;3.70;;
10244;SDS011;5167;52.164;10.530;2024-01-16T07:51:23;7.27;;;4.30;;
10244;SDS011;5167;52.164;10.530;2024-01-16T07:53:51;7.23;;;3.50;;
10244;SDS011;5167;52.164;10.530;2024-01-16T07:56:28;5.70;;;3.07;;
10244;SDS011;5167;52.164;10.530;2024-01-16T07:58:54;4.47;;;2.80;;
10244;SDS011;5167;52.164;10.530;2024-01-16T08:01:19;8.93;;;3.13;;
10244;SDS011;5167;52.164;10.530;2024-01-16T08:03:45;9.40;;;3.07;;
10244;SDS011;5167;52.164;10.530;2024-01-16T08:06:10;7.47;;;3.00;;
10244;SDS011;5167;52.164;10.530;2024-01-16T08:08:35;5.83;;;3.47;;
10244;SDS011;5167;52.164;10.530;2024-01-16T08:11:01;10.33;;;3.30;;
10244;SDS011;5167;52.164;10.530;2024-01-16T08:13:26;6.77;;;3.03;;
10244;SDS011;5167;52.164;10.530;2024-01-16T08:15:53;3.53;;;2.80;;
10244;SDS011;5167;52.164;10.530;2024-01-16T08:18:18;5.23;;;2.80;;
10244;SDS011;5167;52.164;10.530;2024-01-16T08:20:44;8.57;;;2.60;;
10244;SDS011;5167;52.164;10.530;2024-01-16T08:23:09;4.70;;;2.90;;
10244;SDS011;5167;52.164;10.530;2024-01-16T08:25:35;5.50;;;3.03;;
10244;SDS011;5167;52.164;10.530;2024-01-16T08:28:00;7.83;;;3.37;;
10244;SDS011;5167;52.164;10.530;2024-01-16T08:30:26;7.07;;;2.90;;
10244;SDS011;5167;52.164;10.530;2024-01-16T08:32:51;5.30;;;2.73;;
10244;SDS011;5167;52.164;10.530;2024-01-16T08:35:17;6.93;;;2.93;;
10244;SDS011;5167;52.164;10.530;2024-01-16T08:37:42;9.00;;;2.87;;
10244;SDS011;5167;52.164;10.530;2024-01-16T08:40:08;9.17;;;2.90;;
10244;SDS011;5167;52.164;10.530;2024-01-16T08:42:34;9.13;;;2.83;;
10244;SDS011;5167;52.164;10.530;2024-01-16T08:44:59;8.20;;;2.73;;
10244;SDS011;5167;52.164;10.530;2024-01-16T08:47:24;3.03;;;2.37;;
10244;SDS011;5167;52.164;10.530;2024-01-16T08:49:50;8.13;;;3.20;;
10244;SDS011;5167;52.164;10.530;2024-01-16T08:52:16;8.43;;;3.10;;
10244;SDS011;5167;52.164;10.530;2024-01-16T08:54:42;6.57;;;2.67;;
10244;SDS011;5167;52.164;10.530;2024-01-16T08:57:07;4.83;;;2.93;;
10244;SDS011;5167;52.164;10.530;2024-01-16T08:59:35;6.50;;;2.83;;
10244;SDS011;5167;52.164;10.530;2024-01-16T09:02:00;5.67;;;2.83;;
10244;SDS011;5167;52.164;10.530;2024-01-16T09:04:26;4.13;;;2.90;;
10244;SDS011;5167;52.164;10.530;2024-01-16T09:06:52;6.77;;;2.83;;
10244;SDS011;5167;52.164;10.530;2024-01-16T09:09:17;10.60;;;2.70;;
10244;SDS011;5167;52.164;10.530;2024-01-16T09:11:43;10.27;;;3.00;;
10244;SDS011;5167;52.164;10.530;2024-01-16T09:14:08;5.00;;;2.77;;
10244;SDS011;5167;52.164;10.530;2024-01-16T09:16:34;5.63;;;2.47;;
10244;SDS011;5167;52.164;10.530;2024-01-16T09:18:59;8.03;;;2.60;;
10244;SDS011;5167;52.164;10.530;2024-01-16T09:21:26;3.50;;;2.70;;
10244;SDS011;5167;52.164;10.530;2024-01-16T09:23:51;8.17;;;2.80;;
10244;SDS011;5167;52.164;10.530;2024-01-16T09:26:17;9.03;;;2.33;;
10244;SDS011;5167;52.164;10.530;2024-01-16T09:28:42;5.10;;;2.63;;
10244;SDS011;5167;52.164;10.530;2024-01-16T09:31:09;7.23;;;2.57;;
10244;SDS011;5167;52.164;10.530;2024-01-16T09:33:34;8.40;;;3.80;;
10244;SDS011;5167;52.164;10.530;2024-01-16T09:36:00;7.77;;;2.97;;
10244;SDS011;5167;52.164;10.530;2024-01-16T09:38:25;5.37;;;2.50;;
10244;SDS011;5167;52.164;10.530;2024-01-16T09:40:51;5.67;;;3.07;;
10244;SDS011;5167;52.164;10.530;2024-01-16T09:43:21;9.53;;;2.77;;
10244;SDS011;5167;52.164;10.530;2024-01-16T09:45:48;12.20;;;4.97;;
10244;SDS011;5167;52.164;10.530;2024-01-16T09:48:16;6.33;;;3.50;;
10244;SDS011;5167;52.164;10.530;2024-01-16T09:50:41;8.23;;;2.60;;
10244;SDS011;5167;52.164;10.530;2024-01-16T09:53:07;8.03;;;3.57;;
10244;SDS011;5167;52.164;10.530;2024-01-16T09:55:33;12.60;;;4.50;;
10244;SDS011;5167;52.164;10.530;2024-01-16T09:57:58;5.07;;;2.90;;
10244;SDS011;5167;52.164;10.530;2024-01-16T10:00:25;8.03;;;2.90;;
10244;SDS011;5167;52.164;10.530;2024-01-16T10:02:52;4.80;;;2.37;;
10244;SDS011;5167;52.164;10.530;2024-01-16T10:05:18;7.60;;;3.00;;
10244;SDS011;5167;52.164;10.530;2024-01-16T10:07:43;7.70;;;2.60;;
10244;SDS011;5167;52.164;10.530;2024-01-16T10:10:09;10.00;;;2.83;;
10244;SDS011;5167;52.164;10.530;2024-01-16T10:12:38;4.77;;;2.70;;
10244;SDS011;5167;52.164;10.530;2024-01-16T10:15:05;9.23;;;2.50;;
10244;SDS011;5167;52.164;10.530;2024-01-16T10:17:36;10.27;;;3.33;;
10244;SDS011;5167;52.164;10.530;2024-01-16T10:20:02;9.60;;;3.10;;
10244;SDS011;5167;52.164;10.530;2024-01-16T10:22:30;11.13;;;3.17;;
10244;SDS011;5167;52.164;10.530;2024-01-16T10:25:08;5.80;;;2.90;;
10244;SDS011;5167;52.164;10.530;2024-01-16T10:27:36;7.20;;;2.70;;
10244;SDS011;5167;52.164;10.530;2024-01-16T10:30:04;7.47;;;3.00;;
10244;SDS011;5167;52.164;10.530;2024-01-16T10:32:31;6.43;;;2.83;;
10244;SDS011;5167;52.164;10.530;2024-01-16T10:35:01;6.97;;;3.30;;
10244;SDS011;5167;52.164;10.530;2024-01-16T10:37:48;5.37;;;2.80;;
10244;SDS011;5167;52.164;10.530;2024-01-16T10:40:18;6.37;;;3.00;;
10244;SDS011;5167;52.164;10.530;2024-01-16T10:42:45;10.80;;;3.43;;
10244;SDS011;5167;52.164;10.530;2024-01-16T10:45:21;5.00;;;3.00;;
10244;SDS011;5167;52.164;10.530;2024-01-16T10:47:47;5.77;;;3.00;;
10244;SDS011;5167;52.164;10.530;2024-01-16T10:50:14;10.60;;;3.87;;
10244;SDS011;5167;52.164;10.530;2024-01-16T10:53:22;13.97;;;4.60;;
10244;SDS011;5167;52.164;10.530;2024-01-16T10:55:29;6.07;;;2.77;;
10244;SDS011;5167;52.164;10.530;2024-01-16T10:57:56;8.47;;;3.00;;
10244;SDS011;5167;52.164;10.530;2024-01-16T11:00:22;10.30;;;2.97;;
10244;SDS011;5167;52.164;10.530;2024-01-16T11:02:50;7.27;;;3.47;;
10244;SDS011;5167;52.164;10.530;2024-01-16T11:05:28;4.80;;;3.10;;
10244;SDS011;5167;52.164;10.530;2024-01-16T11:07:57;10.03;;;3.37;;
10244;SDS011;5167;52.164;10.530;2024-01-16T11:10:24;4.27;;;3.03;;
10244;SDS011;5167;52.164;10.530;2024-01-16T11:12:51;5.47;;;3.03;;
10244;SDS011;5167;52.164;10.530;2024-01-16T11:15:18;6.60;;;3.40;;
10244;SDS011;5167;52.164;10.530;2024-01-16T11:17:45;10.60;;;3.33;;
10244;SDS011;5167;52.164;10.530;2024-01-16T11:20:11;6.27;;;3.30;;
10244;SDS011;5167;52.164;10.530;2024-01-16T11:22:39;4.80;;;3.23;;
10244;SDS011;5167;52.164;10.530;2024-01-16T11:25:16;9.80;;;3.87;;
10244;SDS011;5167;52.164;10.530;2024-01-16T11:27:43;4.87;;;3.20;;
10244;SDS011;5167;52.164;10.530;2024-01-16T11:30:11;7.17;;;3.50;;
10244;SDS011;5167;52.164;10.530;2024-01-16T11:32:38;11.87;;;4.60;;
10244;SDS011;5167;52.164;10.530;2024-01-16T11:35:10;6.47;;;3.30;;
10244;SDS011;5167;52.164;10.530;2024-01-16T11:37:41;6.03;;;3.50;;
10244;SDS011;5167;52.164;10.530;2024-01-16T11:40:20;8.20;;;3.73;;
10244;SDS011;5167;52.164;10.530;2024-01-16T11:42:46;7.87;;;3.00;;
10244;SDS011;5167;52.164;10.530;2024-01-16T11:50:38;7.50;;;3.80;;
10244;SDS011;5167;52.164;10.530;2024-01-16T11:53:04;5.73;;;3.47;;
10244;SDS011;5167;52.164;10.530;2024-01-16T11:55:34;6.67;;;2.97;;
10244;SDS011;5167;52.164;10.530;2024-01-16T12:01:07;7.40;;;3.50;;
10244;SDS011;5167;52.164;10.530;2024-01-16T12:03:33;6.20;;;3.23;;
10244;SDS011;5167;52.164;10.530;2024-01-16T12:05:59;8.47;;;3.10;;
10244;SDS011;5167;52.164;10.530;2024-01-16T12:08:25;6.10;;;3.03;;
10244;SDS011;5167;52.164;10.530;2024-01-16T12:10:51;6.20;;;3.03;;
10244;SDS011;5167;52.164;10.530;2024-01-16T12:13:17;6.40;;;2.73;;
10244;SDS011;5167;52.164;10.530;2024-01-16T12:15:43;6.50;;;2.67;;
10244;SDS011;5167;52.164;10.530;2024-01-16T12:18:09;4.30;;;2.77;;
10244;SDS011;5167;52.164;10.530;2024-01-16T12:20:38;5.20;;;2.53;;
10244;SDS011;5167;52.164;10.530;2024-01-16T12:23:04;4.10;;;2.87;;
10244;SDS011;5167;52.164;10.530;2024-01-16T12:25:32;6.47;;;2.83;;
10244;SDS011;5167;52.164;10.530;2024-01-16T12:28:06;5.40;;;2.70;;
10244;SDS011;5167;52.164;10.530;2024-01-16T12:30:35;8.60;;;3.23;;
10244;SDS011;5167;52.164;10.530;2024-01-16T12:33:05;6.67;;;3.30;;
10244;SDS011;5167;52.164;10.530;2024-01-16T12:35:38;6.43;;;3.07;;
10244;SDS011;5167;52.164;10.530;2024-01-16T12:38:06;5.37;;;2.67;;
10244;SDS011;5167;52.164;10.530;2024-01-16T12:40:40;6.70;;;3.80;;
10244;SDS011;5167;52.164;10.530;2024-01-16T12:43:07;4.70;;;2.90;;
10244;SDS011;5167;52.164;10.530;2024-01-16T12:45:34;8.10;;;4.17;;
10244;SDS011;5167;52.164;10.530;2024-01-16T12:48:01;7.33;;;4.00;;
10244;SDS011;5167;52.164;10.530;2024-01-16T12:50:29;4.50;;;3.40;;
10244;SDS011;5167;52.164;10.530;2024-01-16T12:53:11;12.27;;;4.23;;
10244;SDS011;5167;52.164;10.530;2024-01-16T12:55:40;8.13;;;3.40;;
10244;SDS011;5167;52.164;10.530;2024-01-16T12:58:21;17.63;;;8.07;;
10244;SDS011;5167;52.164;10.530;2024-01-16T13:00:52;10.67;;;4.93;;
10244;SDS011;5167;52.164;10.530;2024-01-16T13:03:18;7.17;;;3.97;;
10244;SDS011;5167;52.164;10.530;2024-01-16T13:05:46;11.27;;;4.07;;
10244;SDS011;5167;52.164;10.530;2024-01-16T13:08:25;8.77;;;4.67;;
10244;SDS011;5167;52.164;10.530;2024-01-16T13:11:07;10.27;;;5.00;;
10244;SDS011;5167;52.164;10.530;2024-01-16T13:13:34;9.77;;;5.20;;
10244;SDS011;5167;52.164;10.530;2024-01-16T13:16:01;11.30;;;5.23;;
10244;SDS011;5167;52.164;10.530;2024-01-16T13:18:28;11.73;;;5.57;;
10244;SDS011;5167;52.164;10.530;2024-01-16T13:20:55;12.00;;;5.43;;
10244;SDS011;5167;52.164;10.530;2024-01-16T13:23:22;9.87;;;5.77;;
10244;SDS011;5167;52.164;10.530;2024-01-16T13:25:52;9.63;;;5.67;;
10244;SDS011;5167;52.164;10.530;2024-01-16T13:28:20;13.70;;;5.87;;
10244;SDS011;5167;52.164;10.530;2024-01-16T13:30:47;9.50;;;5.37;;
10244;SDS011;5167;52.164;10.530;2024-01-16T13:33:13;7.57;;;5.10;;
10244;SDS011;5167;52.164;10.530;2024-01-16T13:35:42;9.90;;;5.90;;
10244;SDS011;5167;52.164;10.530;2024-01-16T13:38:09;12.90;;;6.40;;
10244;SDS011;5167;52.164;10.530;2024-01-16T13:40:36;12.97;;;6.57;;
10244;SDS011;5167;52.164;10.530;2024-01-16T13:43:05;12.93;;;7.60;;
10244;SDS011;5167;52.164;10.530;2024-01-16T13:45:34;12.30;;;6.67;;
10244;SDS011;5167;52.164;10.530;2024-01-16T13:48:00;14.23;;;6.67;;
10244;SDS011;5167;52.164;10.530;2024-01-16T13:50:27;17.60;;;9.30;;
10244;SDS011;5167;52.164;10.530;2024-01-16T13:52:52;17.60;;;7.67;;
10244;SDS011;5167;52.164;10.530;2024-01-16T13:55:19;14.77;;;7.20;;
10244;SDS011;5167;52.164;10.530;2024-01-16T13:57:45;12.97;;;7.60;;
10244;SDS011;5167;52.164;10.530;2024-01-16T14:00:11;14.67;;;7.90;;
10244;SDS011;5167;52.164;10.530;2024-01-16T14:02:41;17.73;;;8.20;;
10244;SDS011;5167;52.164;10.530;2024-01-16T14:05:12;19.53;;;9.13;;
10244;SDS011;5167;52.164;10.530;2024-01-16T14:07:42;35.33;;;11.60;;
10244;SDS011;5167;52.164;10.530;2024-01-16T14:10:11;19.20;;;10.00;;
10244;SDS011;5167;52.164;10.530;2024-01-16T14:12:38;28.87;;;12.37;;
10244;SDS011;5167;52.164;10.530;2024-01-16T14:15:04;15.13;;;8.70;;
10244;SDS011;5167;52.164;10.530;2024-01-16T14:17:34;16.83;;;9.70;;
10244;SDS011;5167;52.164;10.530;2024-01-16T14:20:00;13.07;;;8.87;;
10244;SDS011;5167;52.164;10.530;2024-01-16T14:22:26;15.30;;;8.60;;
10244;SDS011;5167;52.164;10.530;2024-01-16T14:24:52;18.40;;;9.53;;
10244;SDS011;5167;52.164;10.530;2024-01-16T14:27:18;16.57;;;8.23;;
10244;SDS011;5167;52.164;10.530;2024-01-16T14:29:43;21.60;;;9.03;;
10244;SDS011;5167;52.164;10.530;2024-01-16T14:32:09;14.33;;;7.33;;
10244;SDS011;5167;52.164;10.530;2024-01-16T14:34:35;12.90;;;7.23;;
10244;SDS011;5167;52.164;10.530;2024-01-16T14:37:00;20.73;;;10.20;;
10244;SDS011;5167;52.164;10.530;2024-01-16T14:39:26;27.63;;;14.17;;
10244;SDS011;5167;52.164;10.530;2024-01-16T14:41:55;13.87;;;6.93;;
10244;SDS011;5167;52.164;10.530;2024-01-16T14:44:21;17.13;;;6.83;;
10244;SDS011;5167;52.164;10.530;2024-01-16T14:46:46;9.83;;;6.20;;
10244;SDS011;5167;52.164;10.530;2024-01-16T14:49:12;12.53;;;6.03;;
10244;SDS011;5167;52.164;10.530;2024-01-16T14:51:38;9.37;;;5.93;;